createdAt,value
2023-02-15T00:00:11.470Z,22.90
2023-02-15T00:02:38.668Z,22.90
2023-02-15T00:05:06.064Z,22.90
2023-02-15T00:07:33.487Z,22.90
2023-02-15T00:10:00.383Z,22.90
2023-02-15T00:12:27.295Z,22.90
2023-02-15T00:14:54.185Z,22.90
2023-02-15T00:17:22.230Z,22.90
2023-02-15T00:19:49.283Z,22.90
2023-02-15T00:22:16.257Z,22.80
2023-02-15T00:24:43.113Z,22.80
2023-02-15T00:27:10.315Z,22.80
2023-02-15T00:29:37.347Z,22.80
2023-02-15T00:32:04.503Z,22.80
2023-02-15T00:34:31.465Z,22.80
2023-02-15T00:36:58.552Z,22.80
2023-02-15T00:39:25.535Z,22.80
2023-02-15T00:41:52.510Z,22.70
2023-02-15T00:44:19.544Z,22.70
2023-02-15T00:46:46.525Z,22.70
2023-02-15T00:49:13.381Z,22.70
2023-02-15T00:51:40.582Z,22.70
2023-02-15T00:54:08.069Z,22.70
2023-02-15T00:56:35.343Z,22.70
2023-02-15T00:59:02.556Z,22.70
2023-02-15T01:01:29.486Z,22.70
2023-02-15T01:03:56.359Z,22.60
2023-02-15T01:06:23.335Z,22.60
2023-02-15T01:08:50.350Z,22.60
2023-02-15T01:11:22.876Z,22.60
2023-02-15T01:13:57.169Z,22.60
2023-02-15T01:16:27.649Z,22.60
2023-02-15T01:18:56.168Z,22.60
2023-02-15T01:21:26.128Z,22.60
2023-02-15T01:23:53.991Z,22.60
2023-02-15T01:26:21.072Z,22.60
2023-02-15T01:28:48.098Z,22.60
2023-02-15T01:31:18.528Z,22.50
2023-02-15T01:33:46.868Z,22.50
2023-02-15T01:36:15.198Z,22.50
2023-02-15T01:38:42.681Z,22.50
2023-02-15T01:41:25.645Z,22.50
2023-02-15T01:43:59.455Z,22.50
2023-02-15T01:46:44.218Z,22.50
2023-02-15T01:49:19.065Z,22.50
2023-02-15T01:51:49.790Z,22.50
2023-02-15T01:54:22.929Z,22.40
2023-02-15T01:56:50.044Z,22.40
2023-02-15T01:59:24.337Z,22.40
2023-02-15T02:01:56.645Z,22.40
2023-02-15T02:04:39.635Z,22.40
2023-02-15T02:07:08.784Z,22.40
2023-02-15T02:09:39.557Z,22.40
2023-02-15T02:12:08.140Z,22.40
2023-02-15T02:14:35.390Z,22.40
2023-02-15T02:17:44.252Z,22.30
2023-02-15T02:20:52.118Z,22.40
2023-02-15T02:23:59.782Z,22.30
2023-02-15T02:27:20.733Z,22.40
2023-02-15T02:30:26.411Z,22.30
2023-02-15T02:33:36.836Z,22.30
2023-02-15T02:36:34.219Z,22.30
2023-02-15T02:39:25.017Z,22.30
2023-02-15T02:42:15.841Z,22.30
2023-02-15T02:44:45.766Z,22.30
2023-02-15T02:47:34.360Z,22.20
2023-02-15T02:50:07.938Z,22.20
2023-02-15T02:52:46.722Z,22.20
2023-02-15T02:55:30.942Z,22.20
2023-02-15T02:58:05.388Z,22.20
2023-02-15T03:01:18.878Z,22.20
2023-02-15T03:03:52.365Z,22.20
2023-02-15T03:06:29.682Z,22.20
2023-02-15T03:09:07.554Z,22.20
2023-02-15T03:11:34.998Z,22.20
2023-02-15T03:14:02.084Z,22.10
2023-02-15T03:16:29.752Z,22.10
2023-02-15T03:19:02.173Z,22.10
2023-02-15T03:21:50.347Z,22.10
2023-02-15T03:24:23.668Z,22.10
2023-02-15T03:26:52.948Z,22.10
2023-02-15T03:29:24.478Z,22.10
2023-02-15T03:31:59.170Z,22.10
2023-02-15T03:34:26.956Z,22.10
2023-02-15T03:37:03.335Z,22.10
2023-02-15T03:40:26.701Z,22.10
2023-02-15T03:43:51.242Z,22.10
2023-02-15T03:46:36.140Z,22.10
2023-02-15T03:49:18.909Z,22.10
2023-02-15T03:51:51.268Z,22.10
2023-02-15T03:54:43.704Z,22.10
2023-02-15T03:57:47.780Z,22.00
2023-02-15T04:00:40.840Z,22.00
2023-02-15T04:03:16.646Z,22.00
2023-02-15T04:05:45.884Z,22.00
2023-02-15T04:08:14.453Z,22.00
2023-02-15T04:10:54.483Z,22.00
2023-02-15T04:13:24.581Z,21.90
2023-02-15T04:16:04.483Z,22.00
2023-02-15T04:19:00.931Z,22.00
2023-02-15T04:21:49.503Z,22.00
2023-02-15T04:24:36.225Z,22.00
2023-02-15T04:27:04.199Z,22.00
2023-02-15T04:29:32.314Z,22.00
2023-02-15T04:32:01.398Z,21.90
2023-02-15T04:34:28.456Z,21.90
2023-02-15T04:36:55.472Z,21.90
2023-02-15T04:39:22.379Z,21.90
2023-02-15T04:41:49.320Z,21.90
2023-02-15T04:44:16.696Z,21.90
2023-02-15T04:46:43.625Z,21.90
2023-02-15T04:49:10.858Z,21.90
2023-02-15T04:51:37.920Z,21.90
2023-02-15T04:54:04.997Z,21.90
2023-02-15T04:56:34.050Z,21.90
2023-02-15T04:59:00.897Z,21.90
2023-02-15T05:01:27.862Z,21.90
2023-02-15T05:03:54.917Z,21.80
2023-02-15T05:06:22.275Z,21.80
2023-02-15T05:08:49.417Z,21.90
2023-02-15T05:11:16.308Z,21.80
2023-02-15T05:13:43.210Z,21.90
2023-02-15T05:16:10.223Z,21.80
2023-02-15T05:18:37.229Z,21.90
2023-02-15T05:21:04.506Z,21.90
2023-02-15T05:23:31.402Z,21.80
2023-02-15T05:26:16.661Z,21.80
2023-02-15T05:28:43.575Z,21.80
2023-02-15T05:31:20.003Z,21.80
2023-02-15T05:33:47.828Z,21.80
2023-02-15T05:36:14.963Z,21.70
2023-02-15T05:38:42.046Z,21.80
2023-02-15T05:41:11.400Z,21.80
2023-02-15T05:43:39.660Z,21.80
2023-02-15T05:46:07.038Z,21.80
2023-02-15T05:48:35.579Z,21.80
2023-02-15T05:51:17.938Z,21.80
2023-02-15T05:53:45.392Z,21.80
2023-02-15T05:56:13.130Z,21.80
2023-02-15T05:58:42.603Z,21.80
2023-02-15T06:01:22.792Z,21.80
2023-02-15T06:03:49.894Z,21.80
2023-02-15T06:06:17.088Z,21.80
2023-02-15T06:08:44.242Z,21.70
2023-02-15T06:11:11.749Z,21.70
2023-02-15T06:13:39.203Z,21.70
2023-02-15T06:16:08.095Z,21.70
2023-02-15T06:18:35.431Z,21.70
2023-02-15T06:21:02.360Z,21.70
2023-02-15T06:23:29.741Z,21.70
2023-02-15T06:25:56.930Z,21.70
2023-02-15T06:28:23.892Z,21.70
2023-02-15T06:30:50.926Z,21.70
2023-02-15T06:33:17.867Z,21.70
2023-02-15T06:35:46.445Z,21.70
2023-02-15T06:38:13.516Z,21.70
2023-02-15T06:40:40.371Z,21.70
2023-02-15T06:43:07.309Z,21.70
2023-02-15T06:45:36.424Z,21.70
2023-02-15T06:48:03.556Z,21.80
2023-02-15T06:50:30.530Z,21.90
2023-02-15T06:52:58.846Z,22.00
2023-02-15T06:55:26.385Z,22.20
2023-02-15T06:57:53.513Z,22.30
2023-02-15T07:00:21.600Z,22.50
2023-02-15T07:02:48.648Z,22.70
2023-02-15T07:05:15.934Z,22.90
2023-02-15T07:07:42.766Z,23.00
2023-02-15T07:10:10.003Z,23.10
2023-02-15T07:12:43.302Z,23.30
2023-02-15T07:15:14.202Z,23.40
2023-02-15T07:17:41.247Z,23.50
2023-02-15T07:20:15.999Z,23.70
2023-02-15T07:22:43.830Z,23.80
2023-02-15T07:25:12.940Z,23.90
2023-02-15T07:27:41.302Z,24.00
2023-02-15T07:30:12.988Z,24.20
2023-02-15T07:33:00.122Z,24.20
2023-02-15T07:35:27.157Z,24.30
2023-02-15T07:37:54.972Z,24.40
2023-02-15T07:40:24.317Z,24.50
2023-02-15T07:42:54.168Z,24.50
2023-02-15T07:45:22.916Z,24.60
2023-02-15T07:47:49.905Z,24.70
2023-02-15T07:50:17.032Z,24.70
2023-02-15T07:52:43.981Z,24.80
2023-02-15T07:55:13.715Z,24.90
2023-02-15T07:57:50.261Z,24.90
2023-02-15T08:00:25.745Z,24.90
2023-02-15T08:03:14.406Z,24.90
2023-02-15T08:05:45.070Z,24.90
2023-02-15T08:08:30.554Z,24.90
2023-02-15T08:11:33.788Z,24.90
2023-02-15T08:14:05.047Z,24.90
2023-02-15T08:16:43.286Z,24.90
2023-02-15T08:19:26.833Z,24.50
2023-02-15T08:21:59.640Z,24.90
2023-02-15T08:24:30.090Z,24.90
2023-02-15T08:26:58.139Z,24.90
2023-02-15T08:29:28.687Z,24.80
2023-02-15T08:32:03.005Z,24.90
2023-02-15T08:34:34.860Z,24.80
2023-02-15T08:37:02.025Z,24.90
2023-02-15T08:39:29.699Z,24.80
2023-02-15T08:41:56.874Z,24.90
2023-02-15T08:44:23.854Z,24.90
2023-02-15T08:46:51.810Z,24.90
2023-02-15T08:49:23.237Z,25.00
2023-02-15T08:51:51.104Z,25.00
2023-02-15T08:54:22.148Z,25.00
2023-02-15T08:56:49.627Z,25.00
2023-02-15T08:59:23.384Z,25.00
2023-02-15T09:01:54.632Z,25.10
2023-02-15T09:04:23.525Z,25.10
2023-02-15T09:06:51.473Z,25.10
2023-02-15T09:09:20.201Z,25.10
2023-02-15T09:11:57.845Z,25.10
2023-02-15T09:14:27.725Z,25.10
2023-02-15T09:16:55.253Z,25.10
2023-02-15T09:19:23.906Z,25.10
2023-02-15T09:21:51.262Z,25.10
2023-02-15T09:24:19.328Z,25.20
2023-02-15T09:26:49.552Z,25.20
2023-02-15T09:29:18.979Z,25.20
2023-02-15T09:31:50.149Z,25.20
2023-02-15T09:34:24.285Z,25.20
2023-02-15T09:36:52.681Z,25.20
2023-02-15T09:39:30.582Z,25.20
2023-02-15T09:42:29.852Z,25.30
2023-02-15T09:45:48.034Z,25.30
2023-02-15T09:48:20.661Z,25.30
2023-02-15T09:51:20.130Z,25.40
2023-02-15T09:54:03.472Z,25.40
2023-02-15T09:56:43.197Z,25.40
2023-02-15T09:59:58.977Z,25.40
2023-02-15T10:03:00.527Z,25.50
2023-02-15T10:05:52.879Z,25.50
2023-02-15T10:09:08.624Z,25.50
2023-02-15T10:12:24.553Z,25.60
2023-02-15T10:15:42.444Z,25.60
2023-02-15T10:18:57.992Z,25.70
2023-02-15T10:22:05.440Z,25.80
2023-02-15T10:24:51.992Z,25.80
2023-02-15T10:27:23.209Z,25.80
2023-02-15T10:30:08.235Z,25.90
2023-02-15T10:33:00.461Z,25.90
2023-02-15T10:35:47.602Z,26.00
2023-02-15T10:38:55.204Z,26.00
2023-02-15T10:41:53.672Z,26.10
2023-02-15T10:45:08.631Z,26.20
2023-02-15T10:47:44.458Z,26.20
2023-02-15T10:50:48.605Z,26.30
2023-02-15T10:53:57.174Z,26.40
2023-02-15T10:56:44.476Z,26.50
2023-02-15T10:59:46.494Z,26.60
2023-02-15T11:02:38.926Z,26.80
2023-02-15T11:05:42.505Z,26.90
2023-02-15T11:08:12.779Z,27.00
2023-02-15T11:10:53.153Z,27.20
2023-02-15T11:13:25.543Z,27.20
2023-02-15T11:16:06.502Z,27.40
2023-02-15T11:19:12.362Z,27.50
2023-02-15T11:21:50.912Z,27.60
2023-02-15T11:24:21.277Z,27.80
2023-02-15T11:27:26.927Z,27.90
2023-02-15T11:30:20.319Z,28.10
2023-02-15T11:32:53.170Z,28.20
2023-02-15T11:35:37.998Z,28.40
2023-02-15T11:38:22.044Z,28.50
2023-02-15T11:40:52.603Z,28.60
2023-02-15T11:43:30.186Z,28.70
2023-02-15T11:45:57.430Z,28.80
2023-02-15T11:48:24.871Z,28.90
2023-02-15T11:50:51.742Z,29.00
2023-02-15T11:53:22.728Z,29.00
2023-02-15T11:55:52.124Z,29.10
2023-02-15T11:58:30.984Z,29.20
2023-02-15T12:01:09.460Z,29.30
2023-02-15T12:04:00.775Z,29.30
2023-02-15T12:06:47.375Z,29.40
2023-02-15T12:10:21.624Z,29.50
2023-02-15T12:12:48.670Z,29.50
2023-02-15T12:15:30.593Z,29.60
2023-02-15T12:17:57.615Z,29.70
2023-02-15T12:20:33.939Z,29.80
2023-02-15T12:23:04.558Z,29.80
2023-02-15T12:25:38.789Z,29.80
2023-02-15T12:28:45.479Z,29.90
2023-02-15T12:31:38.122Z,29.90
2023-02-15T12:34:28.002Z,30.00
2023-02-15T12:36:59.123Z,30.00
2023-02-15T12:39:33.017Z,30.10
2023-02-15T12:42:16.503Z,30.20
2023-02-15T12:45:05.211Z,30.20
2023-02-15T12:47:33.442Z,30.30
2023-02-15T12:50:23.080Z,30.30
2023-02-15T12:52:52.545Z,30.40
2023-02-15T12:55:30.694Z,30.50
2023-02-15T12:58:24.084Z,30.50
2023-02-15T13:01:22.321Z,30.60
2023-02-15T13:04:04.333Z,30.60
2023-02-15T13:06:37.526Z,30.60
2023-02-15T13:09:35.876Z,30.60
2023-02-15T13:12:23.174Z,30.60
2023-02-15T13:14:53.363Z,30.60
2023-02-15T13:17:30.453Z,30.60
2023-02-15T13:20:04.966Z,30.60
2023-02-15T13:22:46.583Z,30.50
2023-02-15T13:25:51.227Z,30.50
2023-02-15T13:28:23.692Z,30.50
2023-02-15T13:30:51.413Z,30.40
2023-02-15T13:33:31.571Z,30.30
2023-02-15T13:36:13.777Z,30.30
2023-02-15T13:39:20.674Z,30.20
2023-02-15T13:42:05.745Z,30.10
2023-02-15T13:44:52.739Z,30.00
2023-02-15T13:47:57.383Z,29.90
2023-02-15T13:50:51.673Z,29.90
2023-02-15T13:54:06.596Z,29.80
2023-02-15T13:57:07.617Z,29.70
2023-02-15T14:00:10.829Z,29.70
2023-02-15T14:03:27.358Z,29.70
2023-02-15T14:06:15.593Z,29.70
2023-02-15T14:09:06.498Z,29.70
2023-02-15T14:11:33.359Z,29.70
2023-02-15T14:14:21.643Z,29.60
2023-02-15T14:17:10.341Z,29.60
2023-02-15T14:19:55.279Z,29.60
2023-02-15T14:22:41.322Z,29.80
2023-02-15T14:25:53.092Z,29.40
2023-02-15T14:28:40.068Z,29.40
2023-02-15T14:31:14.122Z,29.20
2023-02-15T14:33:54.186Z,29.10
2023-02-15T14:36:21.675Z,29.00
2023-02-15T14:39:42.962Z,28.90
2023-02-15T14:42:25.395Z,28.80
2023-02-15T14:45:12.451Z,28.70
2023-02-15T14:47:49.387Z,28.60
2023-02-15T14:50:48.938Z,28.60
2023-02-15T14:53:32.160Z,28.50
2023-02-15T14:56:18.425Z,28.40
2023-02-15T14:58:51.123Z,28.40
2023-02-15T15:01:31.886Z,28.20
2023-02-15T15:04:12.825Z,28.20
2023-02-15T15:06:45.096Z,28.20
2023-02-15T15:09:30.835Z,28.10
2023-02-15T15:12:22.891Z,28.00
2023-02-15T15:14:51.969Z,28.00
2023-02-15T15:17:39.021Z,27.90
2023-02-15T15:20:32.050Z,27.90
2023-02-15T15:23:17.384Z,27.80
2023-02-15T15:25:45.684Z,27.80
2023-02-15T15:28:34.056Z,27.80
2023-02-15T15:31:28.905Z,27.70
2023-02-15T15:35:02.002Z,27.70
2023-02-15T15:38:18.722Z,27.60
2023-02-15T15:41:09.286Z,27.60
2023-02-15T15:44:20.992Z,27.60
2023-02-15T15:47:06.188Z,27.60
2023-02-15T15:49:36.861Z,27.60
2023-02-15T15:52:15.292Z,27.50
2023-02-15T15:54:44.229Z,27.50
2023-02-15T15:57:35.260Z,27.40
2023-02-15T16:00:03.907Z,27.40
2023-02-15T16:02:31.132Z,27.30
2023-02-15T16:05:09.842Z,27.30
2023-02-15T16:07:36.961Z,27.30
2023-02-15T16:10:08.632Z,27.20
2023-02-15T16:12:39.370Z,27.20
2023-02-15T16:15:24.543Z,27.20
2023-02-15T16:17:56.862Z,27.20
2023-02-15T16:20:37.984Z,27.20
2023-02-15T16:23:34.943Z,27.10
2023-02-15T16:26:16.742Z,27.10
2023-02-15T16:28:52.757Z,27.10
2023-02-15T16:31:23.579Z,27.10
2023-02-15T16:33:56.105Z,26.90
2023-02-15T16:36:30.346Z,26.90
2023-02-15T16:38:57.166Z,26.90
2023-02-15T16:41:28.830Z,26.90
2023-02-15T16:44:04.295Z,26.80
2023-02-15T16:46:40.811Z,26.80
2023-02-15T16:49:29.865Z,26.80
2023-02-15T16:52:07.969Z,26.80
2023-02-15T16:54:36.666Z,26.80
2023-02-15T16:57:04.195Z,26.80
2023-02-15T16:59:45.786Z,26.70
2023-02-15T17:02:37.496Z,26.70
2023-02-15T17:05:13.169Z,26.70
2023-02-15T17:07:59.918Z,26.60
2023-02-15T17:10:30.794Z,26.60
2023-02-15T17:13:14.490Z,26.60
2023-02-15T17:16:01.879Z,26.60
2023-02-15T17:18:31.788Z,26.50
2023-02-15T17:21:12.055Z,26.50
2023-02-15T17:23:44.910Z,26.50
2023-02-15T17:26:30.160Z,26.50
2023-02-15T17:29:11.123Z,26.50
2023-02-15T17:31:38.909Z,26.50
2023-02-15T17:34:06.180Z,26.40
2023-02-15T17:36:33.283Z,26.40
2023-02-15T17:39:19.498Z,26.30
2023-02-15T17:41:48.433Z,26.30
2023-02-15T17:44:16.438Z,26.20
2023-02-15T17:46:44.706Z,26.20
2023-02-15T17:49:34.785Z,26.20
2023-02-15T17:52:02.972Z,26.20
2023-02-15T17:54:48.811Z,26.10
2023-02-15T17:57:16.935Z,26.10
2023-02-15T18:00:02.390Z,26.00
2023-02-15T18:02:54.213Z,26.00
2023-02-15T18:05:40.941Z,26.00
2023-02-15T18:08:36.173Z,25.90
2023-02-15T18:11:21.955Z,25.90
2023-02-15T18:13:48.850Z,25.80
2023-02-15T18:16:24.470Z,25.80
2023-02-15T18:18:52.253Z,25.80
2023-02-15T18:21:20.250Z,25.70
2023-02-15T18:23:47.261Z,25.70
2023-02-15T18:26:22.208Z,25.60
2023-02-15T18:28:50.984Z,25.60
2023-02-15T18:31:19.983Z,25.50
2023-02-15T18:34:11.434Z,25.50
2023-02-15T18:36:45.788Z,25.50
2023-02-15T18:39:38.518Z,25.40
2023-02-15T18:42:06.486Z,25.40
2023-02-15T18:44:33.566Z,25.40
2023-02-15T18:47:00.520Z,25.30
2023-02-15T18:49:27.682Z,25.30
2023-02-15T18:51:54.763Z,25.20
2023-02-15T18:54:26.000Z,25.20
2023-02-15T18:56:58.986Z,25.20
2023-02-15T18:59:28.059Z,25.10
2023-02-15T19:01:59.564Z,25.10
2023-02-15T19:04:26.674Z,25.00
2023-02-15T19:06:54.856Z,25.00
2023-02-15T19:09:25.504Z,25.00
2023-02-15T19:11:55.421Z,24.90
2023-02-15T19:14:32.639Z,24.90
2023-02-15T19:17:01.220Z,24.90
2023-02-15T19:19:28.450Z,24.80
2023-02-15T19:21:56.088Z,24.80
2023-02-15T19:24:40.565Z,24.80
2023-02-15T19:27:21.385Z,24.70
2023-02-15T19:29:49.628Z,24.70
2023-02-15T19:32:16.609Z,24.70
2023-02-15T19:34:43.801Z,24.60
2023-02-15T19:37:32.138Z,24.60
2023-02-15T19:39:59.180Z,24.60
2023-02-15T19:42:26.577Z,24.50
2023-02-15T19:44:54.562Z,24.50
2023-02-15T19:47:22.037Z,24.40
2023-02-15T19:49:48.959Z,24.40
2023-02-15T19:52:25.604Z,24.40
2023-02-15T19:54:55.075Z,24.40
2023-02-15T19:57:22.076Z,24.40
2023-02-15T19:59:49.199Z,24.30
2023-02-15T20:02:20.283Z,24.30
2023-02-15T20:04:47.286Z,24.30
2023-02-15T20:07:28.285Z,24.20
2023-02-15T20:09:55.536Z,24.30
2023-02-15T20:12:24.969Z,24.20
2023-02-15T20:14:53.066Z,24.20
2023-02-15T20:17:20.233Z,24.20
2023-02-15T20:19:47.366Z,24.10
2023-02-15T20:22:27.221Z,24.10
2023-02-15T20:24:56.966Z,24.10
2023-02-15T20:27:24.291Z,24.10
2023-02-15T20:29:51.626Z,24.00
2023-02-15T20:32:18.843Z,24.10
2023-02-15T20:34:45.925Z,24.00
2023-02-15T20:37:34.022Z,24.00
2023-02-15T20:40:01.174Z,24.00
2023-02-15T20:42:28.140Z,24.00
2023-02-15T20:44:55.228Z,23.90
2023-02-15T20:47:22.337Z,23.90
2023-02-15T20:49:50.655Z,23.90
2023-02-15T20:52:21.248Z,23.80
2023-02-15T20:54:48.569Z,23.80
2023-02-15T20:57:16.636Z,23.80
2023-02-15T20:59:43.555Z,23.80
2023-02-15T21:02:23.871Z,23.80
2023-02-15T21:04:51.354Z,23.80
2023-02-15T21:07:21.710Z,23.80
2023-02-15T21:09:49.343Z,23.80
2023-02-15T21:12:19.441Z,23.70
2023-02-15T21:14:46.996Z,23.70
2023-02-15T21:17:16.517Z,23.70
2023-02-15T21:19:43.645Z,23.70
2023-02-15T21:22:16.789Z,23.70
2023-02-15T21:24:52.161Z,23.70
2023-02-15T21:27:19.282Z,23.70
2023-02-15T21:29:46.190Z,23.60
2023-02-15T21:32:13.359Z,23.60
2023-02-15T21:34:40.676Z,23.60
2023-02-15T21:37:31.550Z,23.60
2023-02-15T21:39:59.018Z,23.60
2023-02-15T21:42:44.744Z,23.60
2023-02-15T21:45:37.046Z,23.50
2023-02-15T21:48:04.342Z,23.60
2023-02-15T21:50:50.088Z,23.60
2023-02-15T21:53:31.770Z,23.50
2023-02-15T21:56:02.710Z,23.50
2023-02-15T21:58:35.443Z,23.50
2023-02-15T22:01:03.098Z,23.40
2023-02-15T22:03:38.385Z,23.40
2023-02-15T22:06:06.142Z,23.40
2023-02-15T22:08:34.060Z,23.40
2023-02-15T22:11:01.065Z,23.30
2023-02-15T22:13:34.306Z,23.40
2023-02-15T22:16:03.221Z,23.40
2023-02-15T22:18:34.216Z,23.30
2023-02-15T22:21:04.312Z,23.30
2023-02-15T22:23:31.645Z,23.30
2023-02-15T22:26:04.093Z,23.30
2023-02-15T22:28:40.096Z,23.30
2023-02-15T22:31:14.171Z,23.30
2023-02-15T22:33:41.208Z,23.30
2023-02-15T22:36:25.395Z,23.30
2023-02-15T22:38:53.624Z,23.30
2023-02-15T22:41:25.185Z,23.20
2023-02-15T22:43:53.005Z,23.20
2023-02-15T22:46:24.016Z,23.20
2023-02-15T22:48:52.174Z,23.20
2023-02-15T22:51:23.492Z,23.20
2023-02-15T22:53:54.695Z,23.20
2023-02-15T22:56:53.283Z,23.20
2023-02-15T22:59:28.370Z,23.20
2023-02-15T23:01:57.262Z,23.20
2023-02-15T23:04:28.554Z,23.20
2023-02-15T23:06:59.408Z,23.10
2023-02-15T23:09:26.870Z,23.10
2023-02-15T23:11:54.531Z,23.10
2023-02-15T23:14:36.664Z,23.10
2023-02-15T23:17:03.595Z,23.10
2023-02-15T23:19:30.503Z,23.10
2023-02-15T23:21:57.718Z,23.10
2023-02-15T23:24:30.188Z,23.00
2023-02-15T23:27:17.663Z,23.10
2023-02-15T23:29:44.465Z,23.00
2023-02-15T23:32:15.603Z,23.10
2023-02-15T23:34:43.565Z,23.00
2023-02-15T23:37:14.425Z,23.00
2023-02-15T23:39:59.530Z,23.00
2023-02-15T23:42:33.451Z,23.00
2023-02-15T23:45:01.480Z,23.00
2023-02-15T23:47:53.967Z,23.00
2023-02-15T23:50:30.212Z,23.00
2023-02-15T23:52:57.997Z,23.00
2023-02-15T23:55:38.196Z,23.00
2023-02-15T23:58:14.685Z,23.00
